Terminal Aerodrome Forecast
Issued by NWS

Home | Current Version | Previous Version | Text Only | Print | Product List | Glossary Off
Versions: 1 2 3 4 5 6 7 8 9 10 11 12 13

737
FTUS45 KGGW 180924 AAA
TAFSDY
TAF AMD
KSDY 180924Z 1809/1906 VRB05KT P6SM FEW150
      TEMPO 1809/1811 -SHRA FEW025 BKN100=

USA.gov is the U.S. government's official web portal to all federal, state and local government web resources and services.